Aurora — ZCDW9 — position and weather

sailwx.info

Track history (hours):
 
Tides and Currents Weather Stations Pressure Air Temp Water Temp Dewpoint Dewpoint Depression Visibility Wind Speed Wind Dir Waves Ship Positions

Aurora (Bermuda)

Last reported at 2018-May-27 09:29 UTC. Time now 2018-May-27 09:32 UTC.
Position N 59°57' E 030°12'.

Length 271 m; draft 8.3 m.

Type: Ship. MMSI: 310555970.

Date/timePositionNaut miles runAvg speedWind from/ knotsBaromVisibWave heightAir tempDewpointWater temp
2018-May-27 09:29N 59°57' E 030°12'0 0.0
2018-May-27 08:59N 59°57' E 030°12'0 0.0
2018-May-27 08:29N 59°57' E 030°12'0 0.0
2018-May-27 07:59N 59°57' E 030°12'0 0.0
2018-May-27 07:29N 59°57' E 030°12'0 0.0
2018-May-27 06:59N 59°57' E 030°12'0 0.0
2018-May-27 06:29N 59°57' E 030°12'0 0.0
2018-May-27 05:59N 59°57' E 030°12'0 0.0
2018-May-27 05:29N 59°57' E 030°12'0 0.0
2018-May-27 04:59N 59°57' E 030°12'0 0.0
2018-May-27 04:29N 59°57' E 030°12'0 0.0
2018-May-27 03:56N 59°57' E 030°12'0 0.6
2018-May-27 03:30N 59°57' E 030°11'4 7.9
2018-May-27 03:00N 59°56' E 030°03'5 9.5
2018-May-27 02:31N 59°56' E 029°54'5 9.4
2018-May-27 02:01N 59°59' E 029°46'510.2
2018-May-27 01:30N 60°00' E 029°36'511.0
2018-May-27 01:01N 60°02' E 029°25'5 9.8
2018-May-27 00:30N 60°02' E 029°15'5 9.4
2018-May-26 23:59N 60°02' E 029°06'5 9.5
2018-May-26 23:30N 60°02' E 028°57'5 9.3
2018-May-26 23:00N 60°02' E 028°47'5 9.2
2018-May-26 22:30N 60°02' E 028°38'714.9
2018-May-26 22:00N 60°04' E 028°23'715.0
2018-May-26 21:30N 60°08' E 028°11'611.5
2018-May-26 21:00N 60°09' E 027°60'611.4
2018-May-26 20:31N 60°11' E 027°49'713.7
2018-May-26 20:00N 60°08' E 027°37'713.4
2018-May-26 19:31N 60°04' E 027°25'612.3
2018-May-26 19:00N 60°01' E 027°15'2135.4
2018-May-26 19:00N 60°00' E 027°18'714.9 180 / 91025.010.8 18.813.615.0
2018-May-26 18:31N 59°58' E 027°04'612.1
2018-May-26 18:00N 59°59' E 026°52'612.1
2018-May-26 17:30N 59°59' E 026°40'613.0
2018-May-26 17:00N 59°57' E 026°28'814.5
2018-May-26 16:29N 59°55' E 026°13'612.1
2018-May-26 16:00N 59°54' E 026°02'612.1
2018-May-26 15:30N 59°53' E 025°50'612.1
2018-May-26 15:00N 59°51' E 025°39'612.0
2018-May-26 14:31N 59°50' E 025°27'611.9
2018-May-26 14:00N 59°49' E 025°15'612.0
2018-May-26 13:30N 59°47' E 025°04'611.5
2018-May-26 13:00N 59°46' E 024°53'611.4
2018-May-26 12:31N 59°45' E 024°42'611.2
2018-May-26 12:00N 59°44' E 024°31'511.0
2018-May-26 11:30N 59°43' E 024°20'611.1
2018-May-26 11:00N 59°41' E 024°10'611.2
2018-May-26 10:30N 59°39' E 023°59'611.4
2018-May-26 10:00N 59°37' E 023°48'612.6
2018-May-26 09:30N 59°36' E 023°36'612.5
2018-May-26 09:00N 59°33' E 023°25'612.3
2018-May-26 08:30N 59°31' E 023°13'612.3
2018-May-26 08:00N 59°30' E 023°02'612.4
2018-May-26 07:30N 59°28' E 022°50'612.2
2018-May-26 07:00N 59°26' E 022°39'612.2
2018-May-26 06:31N 59°22' E 022°29'1212.1
2018-May-26 05:30N 59°15' E 022°09'612.1
2018-May-26 05:00N 59°12' E 021°60'612.2
2018-May-26 04:30N 59°08' E 021°50'612.3
2018-May-26 04:01N 59°04' E 021°42'612.2
2018-May-26 03:30N 58°59' E 021°33'612.1
2018-May-26 03:00N 58°56' E 021°24'612.1
2018-May-26 02:30N 58°52' E 021°15'612.1
2018-May-26 02:00N 58°48' E 021°05'612.1
2018-May-26 01:30N 58°45' E 020°56'712.1
2018-May-26 00:54N 58°40' E 020°45'511.9
2018-May-26 00:29N 58°37' E 020°37'611.8
2018-May-26 00:00N 58°34' E 020°29'913.1
2018-May-25 23:21N 58°29' E 020°16'814.7
2018-May-25 22:49N 58°24' E 020°03'412.1
2018-May-25 22:30N 58°22' E 019°58'612.2
2018-May-25 21:59N 58°18' E 019°48'712.2
2018-May-25 21:23N 58°14' E 019°37'511.9
2018-May-25 20:58N 58°11' E 019°29'611.8
2018-May-25 20:26N 58°07' E 019°20'511.8
2018-May-25 20:01N 58°05' E 019°11'4228.5
2018-May-25 20:00N 58°06' E 019°18'1020.3 060 / 141026.710.8 13.5 9.612.0
2018-May-25 19:30N 58°03' E 019°00'612.0
2018-May-25 19:00N 57°60' E 018°50'612.1
2018-May-25 18:30N 57°57' E 018°40'713.1
2018-May-25 18:00N 57°55' E 018°29'611.9
2018-May-25 17:30N 57°52' E 018°19'612.0
2018-May-25 17:01N 57°46' E 018°14'9 2.1
2018-May-25 12:53N 57°38' E 018°16'1 0.1
2018-May-25 05:05N 57°38' E 018°14'1 9.1
2018-May-25 04:56N 57°37' E 018°12'912.2
2018-May-25 04:13N 57°32' E 017°59'414.4
2018-May-25 03:59N 57°30' E 017°54'714.3
2018-May-25 03:30N 57°24' E 017°47'815.1
2018-May-25 03:00N 57°17' E 017°47'815.5
2018-May-25 02:30N 57°09' E 017°49'815.4
2018-May-25 02:00N 57°01' E 017°51'815.6
2018-May-25 01:30N 56°54' E 017°53'815.7
2018-May-25 01:00N 56°46' E 017°55'815.7
2018-May-25 00:30N 56°38' E 017°58'815.7
2018-May-25 00:00N 56°30' E 018°01'815.6
2018-May-24 23:30N 56°23' E 018°04'815.7
2018-May-24 23:00N 56°15' E 018°07'815.8
2018-May-24 22:31N 56°08' E 018°10'816.1
2018-May-24 22:01N 55°60' E 018°14'816.2
2018-May-24 21:30N 55°52' E 018°17'816.1
2018-May-24 21:00N 55°44' E 018°21'816.1
2018-May-24 20:31N 55°36' E 018°24'816.1
2018-May-24 20:01N 55°28' E 018°27'9540.0
2018-May-24 20:00N 55°36' E 018°18'1735.1 020 / 221025.510.8 12.0 7.912.0
2018-May-24 19:31N 55°21' E 018°33'815.9
2018-May-24 19:00N 55°14' E 018°40'815.8
2018-May-24 18:30N 55°07' E 018°45'816.0
2018-May-24 18:01N 54°59' E 018°50'815.8
2018-May-24 17:30N 54°52' E 018°55'815.7
2018-May-24 17:00N 54°45' E 018°59'815.8
2018-May-24 16:31N 54°37' E 018°55'815.1
2018-May-24 16:01N 54°32' E 018°46'613.0
2018-May-24 15:30N 54°32' E 018°35'1 2.2
2018-May-24 14:57N 54°32' E 018°33'0 0.0
2018-May-24 14:27N 54°32' E 018°33'0 0.0
2018-May-24 13:57N 54°32' E 018°33'0 0.0
2018-May-24 13:27N 54°32' E 018°33'0 0.0
2018-May-24 08:59N 54°32' E 018°33'0 0.0
2018-May-24 08:29N 54°32' E 018°33'0 0.0
2018-May-24 07:59N 54°32' E 018°33'0 0.0
2018-May-24 07:29N 54°32' E 018°33'0 0.0
2018-May-24 06:59N 54°32' E 018°33'0 0.0
2018-May-24 06:29N 54°32' E 018°33'0 0.0
2018-May-24 05:59N 54°32' E 018°33'0 0.5
2018-May-24 05:31N 54°32' E 018°33'4 7.9
2018-May-24 05:00N 54°32' E 018°40'510.4
2018-May-24 04:30N 54°33' E 018°49'611.2
2018-May-24 04:00N 54°38' E 018°55'611.3
2018-May-24 03:30N 54°43' E 018°59'815.0
2018-May-24 03:00N 54°50' E 018°54'815.4
2018-May-24 02:30N 54°54' E 018°43'612.8
2018-May-24 02:01N 54°59' E 018°35'712.9
2018-May-24 01:30N 54°57' E 018°24'714.1
2018-May-24 01:00N 54°58' E 018°12'714.6
2018-May-24 00:30N 54°56' E 017°60'715.0
2018-May-24 00:01N 54°54' E 017°47'714.9
2018-May-23 23:31N 54°53' E 017°34'714.9
2018-May-23 23:00N 54°52' E 017°21'251603.8
2018-May-23 23:00N 54°42' E 016°42'1836.7 080 / 201025.410.8 13.011.112.0
2018-May-23 22:30N 54°51' E 017°09'714.8
2018-May-23 22:00N 54°49' E 016°56'714.8
2018-May-23 21:30N 54°47' E 016°44'714.8
2018-May-23 21:01N 54°46' E 016°31'714.8
2018-May-23 20:31N 54°45' E 016°18'714.8
2018-May-23 20:01N 54°43' E 016°06'714.7
2018-May-23 19:31N 54°42' E 015°54'714.8
2018-May-23 19:01N 54°41' E 015°41'714.6
2018-May-23 18:31N 54°40' E 015°28'714.4
2018-May-23 18:00N 54°39' E 015°16'714.6
2018-May-23 17:30N 54°38' E 015°03'714.6
2018-May-23 17:00N 54°37' E 014°51'5340.3
2018-May-23 17:00N 54°36' E 014°42'2 4.2 050 / 111025.010.8 15.411.614.0
2018-May-23 16:30N 54°36' E 014°38'714.6
2018-May-23 16:00N 54°35' E 014°26'714.6
2018-May-23 15:30N 54°37' E 014°14'714.8
2018-May-23 15:00N 54°38' E 014°01'714.6
2018-May-23 14:30N 54°39' E 013°49'714.8
2018-May-23 14:00N 54°42' E 013°37'714.8
2018-May-23 13:30N 54°44' E 013°25'814.8
2018-May-23 12:59N 54°44' E 013°11'914.8
2018-May-23 12:24N 54°43' E 012°56'1114.3
2018-May-23 11:36N 54°42' E 012°37'614.7
2018-May-23 11:13N 54°39' E 012°29'314.7
2018-May-23 11:00N 54°37' E 012°24'713.9
2018-May-23 10:30N 54°32' E 012°17'613.0
2018-May-23 10:00N 54°26' E 012°12'714.0
2018-May-23 09:30N 54°25' E 011°60'714.5
2018-May-23 09:00N 54°25' E 011°47'714.2
2018-May-23 08:30N 54°28' E 011°36'714.9
2018-May-23 08:01N 54°31' E 011°25'714.6
2018-May-23 07:30N 54°34' E 011°13'714.3
2018-May-23 07:01N 54°38' E 011°03'611.8
2018-May-23 06:30N 54°41' E 010°54'611.9
2018-May-23 06:00N 54°47' E 010°52'713.5
2018-May-23 05:31N 54°53' E 010°53'713.0
2018-May-23 05:00N 54°59' E 010°60'713.5
2018-May-23 04:30N 55°05' E 011°02'613.1
2018-May-23 04:00N 55°12' E 011°05'713.1
2018-May-23 03:30N 55°18' E 011°03'613.1
2018-May-23 03:00N 55°24' E 010°59'713.2
2018-May-23 02:30N 55°30' E 010°53'510.9
2018-May-23 02:00N 55°35' E 010°49'510.5
2018-May-23 01:30N 55°40' E 010°46'713.1
2018-May-23 01:00N 55°46' E 010°48'713.6
2018-May-23 00:31N 55°52' E 010°53'611.4
2018-May-23 00:00N 55°57' E 010°59'4 8.2
2018-May-22 23:29N 56°01' E 011°03'612.7
2018-May-22 23:00N 56°06' E 011°09'7 9.7
2018-May-22 22:14N 56°08' E 011°22'311.1
2018-May-22 22:00N 56°08' E 011°26'711.9
2018-May-22 21:26N 56°08' E 011°38'511.9
2018-May-22 20:59N 56°09' E 011°48'611.8
2018-May-22 20:29N 56°10' E 011°58'611.9
2018-May-22 20:00N 56°12' E 012°08'612.0
2018-May-22 19:30N 56°13' E 012°19'816.0
2018-May-22 19:00N 56°08' E 012°30'714.7
2018-May-22 18:30N 56°03' E 012°40'816.4
2018-May-22 18:00N 55°55' E 012°39'815.8
2018-May-22 17:31N 55°47' E 012°42'611.3
2018-May-22 17:00N 55°42' E 012°36'0 0.6
2018-May-22 16:28N 55°42' E 012°36'0 0.0
2018-May-22 15:58N 55°42' E 012°36'0 0.0
2018-May-22 15:28N 55°42' E 012°36'0 0.0
2018-May-22 14:58N 55°42' E 012°36'0 0.0
2018-May-22 14:28N 55°42' E 012°36'0 0.0
2018-May-22 13:58N 55°42' E 012°36'0 0.0
2018-May-22 13:28N 55°42' E 012°36'0 0.0
2018-May-22 12:58N 55°42' E 012°36'0 0.0
2018-May-22 12:28N 55°42' E 012°36'0 0.0
2018-May-22 11:58N 55°42' E 012°36'0 0.0
2018-May-22 11:28N 55°42' E 012°36'0 0.0
2018-May-22 10:58N 55°42' E 012°36'0 0.0
2018-May-22 10:28N 55°42' E 012°36'0 0.0
2018-May-22 09:58N 55°42' E 012°36'0 0.0
2018-May-22 09:28N 55°42' E 012°36'0 0.0
2018-May-22 08:58N 55°42' E 012°36'0 0.0
2018-May-22 08:28N 55°42' E 012°36'0 0.0
2018-May-22 07:58N 55°42' E 012°36'0 0.0
2018-May-22 07:28N 55°42' E 012°36'0 0.0
2018-May-22 06:58N 55°42' E 012°36'0 0.7
2018-May-22 06:30N 55°42' E 012°36'1 2.5
2018-May-22 06:00N 55°43' E 012°38'613.0
2018-May-22 05:31N 55°49' E 012°42'815.9
2018-May-22 05:01N 55°57' E 012°38'714.7
2018-May-22 04:30N 56°04' E 012°37'713.5
2018-May-22 04:01N 56°08' E 012°28'816.7
2018-May-22 03:30N 56°13' E 012°16'1719.3
2018-May-22 02:36N 56°28' E 011°58'221.6
2018-May-22 02:30N 56°30' E 011°57'1821.7
2018-May-22 01:39N 56°48' E 011°51'321.6
2018-May-22 01:30N 56°51' E 011°48'1121.6
2018-May-22 01:00N 57°01' E 011°41'7411.2
2018-May-22 01:00N 56°54' E 011°42'1735.6 110 / 91020.710.8 16.612.516.0
2018-May-22 00:30N 57°11' E 011°34'1122.1
2018-May-22 00:00N 57°21' E 011°27'1121.9
2018-May-21 23:30N 57°31' E 011°21'1122.0
2018-May-21 23:00N 57°41' E 011°12'1121.5
2018-May-21 22:30N 57°52' E 011°06'1021.0
2018-May-21 22:00N 58°01' E 010°59'1121.4
2018-May-21 21:30N 58°11' E 010°50'1121.3
2018-May-21 21:00N 58°21' E 010°41'1021.0
2018-May-21 20:30N 58°31' E 010°36'1020.8
2018-May-21 20:00N 58°41' E 010°35'1019.5
2018-May-21 19:30N 58°51' E 010°34'1019.8
2018-May-21 19:00N 59°01' E 010°35'714.3
2018-May-21 18:30N 59°08' E 010°37'816.9
2018-May-21 18:00N 59°16' E 010°36'917.2
2018-May-21 17:30N 59°25' E 010°33'816.9
2018-May-21 17:00N 59°33' E 010°37'612.6
2018-May-21 16:30N 59°39' E 010°37'611.5
2018-May-21 16:00N 59°45' E 010°33'714.6
2018-May-21 15:30N 59°52' E 010°37'4 8.6
2018-May-21 15:01N 59°54' E 010°44'0 0.5
2018-May-21 14:30N 59°54' E 010°45'0 0.0
2018-May-21 14:00N 59°54' E 010°45'0 0.0
2018-May-21 13:30N 59°54' E 010°45'0 0.0
2018-May-21 13:00N 59°54' E 010°45'0 0.0
2018-May-21 12:30N 59°54' E 010°45'0 0.0
2018-May-21 12:00N 59°54' E 010°45'0 0.0
2018-May-21 11:30N 59°54' E 010°45'0 0.0
2018-May-21 11:00N 59°54' E 010°45'0 0.0
2018-May-21 10:30N 59°54' E 010°45'0 0.0
2018-May-21 10:00N 59°54' E 010°45'0 0.3
2018-May-21 09:30N 59°54' E 010°45'2 3.4
2018-May-21 09:00N 59°54' E 010°42'815.9
2018-May-21 08:31N 59°47' E 010°34'713.2
2018-May-21 08:01N 59°40' E 010°37'612.8
2018-May-21 07:30N 59°34' E 010°38'816.3
2018-May-21 07:00N 59°26' E 010°34'918.8
2018-May-21 06:30N 59°17' E 010°37'917.6
2018-May-21 06:00N 59°08' E 010°38'612.8
2018-May-21 05:30N 59°02' E 010°34'815.3
2018-May-21 05:00N 58°55' E 010°27'815.2
2018-May-21 04:30N 58°49' E 010°17'815.8
2018-May-21 04:00N 58°43' E 010°07'815.6
2018-May-21 03:30N 58°37' E 009°58'815.5
2018-May-21 03:00N 58°31' E 009°49'816.6
2018-May-21 02:30N 58°24' E 009°39'917.5
2018-May-21 02:00N 58°17' E 009°30'6422.9
2018-May-21 02:00N 58°12' E 009°24'2 4.3 130 / 121025.527.0 14.813.014.0
2018-May-21 01:30N 58°10' E 009°21'816.1
2018-May-21 01:00N 58°04' E 009°12'1116.0
2018-May-21 00:19N 57°54' E 009°03'1216.5
2018-May-20 23:35N 57°45' E 008°48'1517.1
2018-May-20 22:43N 57°32' E 008°33'418.4
2018-May-20 22:29N 57°29' E 008°29'918.0
2018-May-20 22:00N 57°22' E 008°19'1017.9
2018-May-20 21:28N 57°14' E 008°09'1118.2
2018-May-20 20:53N 57°05' E 008°00'718.0
2018-May-20 20:30N 56°59' E 007°54'918.0
2018-May-20 20:00N 56°52' E 007°43'917.8
2018-May-20 19:30N 56°45' E 007°34'918.0
2018-May-20 19:00N 56°37' E 007°26'1617.9
2018-May-20 18:06N 56°23' E 007°09'18020.8
2018-May-20 09:29N 53°50' E 004°27'3724.8
2018-May-20 08:00N 53°24' E 003°42'2618.6 020 / 81024.2 1.1 10.810.0 9.0
2018-May-20 06:34N 52°60' E 003°25'622.6
2018-May-20 06:18N 52°54' E 003°20'722.7
2018-May-20 06:00N 52°48' E 003°15'1122.9
2018-May-20 05:31N 52°38' E 003°06'1322.8
2018-May-20 04:57N 52°27' E 002°56'1022.4
2018-May-20 04:30N 52°18' E 002°48'1122.1
2018-May-20 04:00N 52°08' E 002°42'1121.9
2018-May-20 03:30N 51°57' E 002°39'1021.0
2018-May-20 03:00N 51°47' E 002°35'1121.5
2018-May-20 02:30N 51°38' E 002°26'1121.3
2018-May-20 02:00N 51°29' E 002°16'1020.8
2018-May-20 01:30N 51°20' E 002°09'1019.4
2018-May-20 01:00N 51°12' E 002°00'1020.6
2018-May-20 00:30N 51°07' E 001°46'1019.9
2018-May-20 00:00N 51°00' E 001°34'1019.4
2018-May-19 23:30N 50°52' E 001°25'919.5
2018-May-19 23:00N 50°43' E 001°21'1019.9
2018-May-19 22:30N 50°36' E 001°09'1020.0
2018-May-19 22:00N 50°30' E 000°56'1020.2
2018-May-19 21:30N 50°28' E 000°41'1019.9
2018-May-19 21:00N 50°25' E 000°26'1019.9
2018-May-19 20:30N 50°23' E 000°11'1019.6
2018-May-19 20:00N 50°21' W 000°04'1019.5
2018-May-19 19:30N 50°24' W 000°18'1019.5
2018-May-19 19:00N 50°29' W 000°32'1019.5
2018-May-19 18:30N 50°35' W 000°44'816.7
2018-May-19 18:00N 50°39' W 000°55'611.1
2018-May-19 17:30N 50°43' W 001°01'817.0
2018-May-19 17:00N 50°46' W 001°14'5 9.8
2018-May-19 16:31N 50°50' W 001°19'5 9.4
2018-May-19 16:00N 50°53' W 001°24'2 3.2
2018-May-19 15:30N 50°54' W 001°26'0 0.0
2018-May-19 14:57N 50°54' W 001°26'0 0.0
2018-May-19 14:30N 50°54' W 001°26'0 0.0
2018-May-19 14:00N 50°54' W 001°26'0 0.0
2018-May-19 13:27N 50°54' W 001°26'0 0.0
2018-May-19 13:00N 50°54' W 001°26'0 0.0
2018-May-19 12:27N 50°54' W 001°26'0 0.0
2018-May-19 12:00N 50°54' W 001°26'0 0.0
2018-May-19 11:30N 50°54' W 001°26'0 0.0
2018-May-19 11:00N 50°54' W 001°26'0 0.0
2018-May-19 10:27N 50°54' W 001°26'0 0.0
2018-May-19 10:00N 50°54' W 001°26'0 0.0
2018-May-19 09:30N 50°54' W 001°26'0 0.0
2018-May-19 09:00N 50°54' W 001°26'0 0.0
2018-May-19 08:30N 50°54' W 001°26'0 0.0
2018-May-19 08:00N 50°54' W 001°26'0 0.0
2018-May-19 07:30N 50°54' W 001°26'0 0.0
2018-May-19 07:00N 50°54' W 001°26'0 0.0
2018-May-19 06:30N 50°54' W 001°26'0 0.0
2018-May-19 06:00N 50°54' W 001°26'0 0.0
2018-May-19 05:30N 50°54' W 001°26'0 0.3
2018-May-19 05:00N 50°54' W 001°26'1 2.8
2018-May-19 04:30N 50°53' W 001°24'4 7.9
2018-May-19 04:00N 50°51' W 001°20'4 8.6
2018-May-19 03:30N 50°47' W 001°18'816.5
2018-May-19 03:01N 50°45' W 001°06'713.6
2018-May-19 02:31N 50°40' W 000°58'612.4
2018-May-19 02:00N 50°34' W 001°00'714.5
2018-May-19 01:30N 50°29' W 001°09'917.5
2018-May-19 01:00N 50°27' W 001°22'917.3
2018-May-19 00:30N 50°25' W 001°35'816.8
2018-May-19 00:00N 50°23' W 001°48'917.6
2018-May-18 23:30N 50°21' W 002°01'917.9
2018-May-18 23:00N 50°18' W 002°15'918.8
2018-May-18 22:30N 50°16' W 002°29'1019.3
2018-May-18 22:00N 50°14' W 002°44'919.1
2018-May-18 21:30N 50°11' W 002°58'917.6
2018-May-18 21:00N 50°06' W 003°09'1020.6
2018-May-18 20:30N 49°56' W 003°07'1019.8
2018-May-18 20:00N 49°46' W 003°04'1019.0
2018-May-18 19:30N 49°37' W 002°58'917.3
2018-May-18 19:00N 49°29' W 002°53'815.5
2018-May-18 18:30N 49°23' W 002°46'713.5
2018-May-18 18:01N 49°22' W 002°36'611.6
2018-May-18 17:30N 49°26' W 002°30'2 3.0
2018-May-18 17:00N 49°28' W 002°30'0 0.0
2018-May-18 16:30N 49°28' W 002°30'0 0.1
2018-May-18 16:00N 49°27' W 002°30'0 0.0
2018-May-18 15:30N 49°27' W 002°30'0 0.0
2018-May-18 14:39N 49°28' W 002°30'0 0.1
2018-May-18 14:30N 49°27' W 002°30'0 0.1
2018-May-18 13:57N 49°28' W 002°30'0 0.1
2018-May-18 13:30N 49°28' W 002°30'0 0.0
2018-May-18 13:00N 49°28' W 002°30'0 0.0
2018-May-18 12:30N 49°28' W 002°30'0 0.0
2018-May-18 12:00N 49°28' W 002°30'0 0.0
2018-May-18 11:27N 49°28' W 002°30'0 0.0
2018-May-18 10:57N 49°28' W 002°30'0 0.1
2018-May-18 10:30N 49°28' W 002°30'0 0.0
2018-May-18 09:57N 49°28' W 002°30'0 0.0
2018-May-18 09:21N 49°28' W 002°30'0 0.0
2018-May-18 09:00N 49°28' W 002°30'0 0.0
2018-May-18 08:27N 49°28' W 002°30'0 0.0
2018-May-18 08:00N 49°28' W 002°30'0 0.0
2018-May-18 07:30N 49°28' W 002°30'0 0.1
2018-May-18 07:00N 49°28' W 002°30'0 0.2
2018-May-18 06:30N 49°28' W 002°30'3 6.0
2018-May-18 06:00N 49°25' W 002°29'612.7
2018-May-18 05:30N 49°23' W 002°20'815.4
2018-May-18 05:00N 49°28' W 002°12'918.8
2018-May-18 04:30N 49°37' W 002°07'1020.1
2018-May-18 04:00N 49°47' W 002°01'1122.5
2018-May-18 03:30N 49°51' W 001°45'1122.3
2018-May-18 03:00N 49°54' W 001°28'1121.6
2018-May-18 02:30N 49°59' W 001°13'1122.7
2018-May-18 02:01N 50°04' W 000°57'1020.6
2018-May-18 01:30N 50°11' W 000°46'1121.5
2018-May-18 01:01N 50°18' W 000°33'1121.1
2018-May-18 00:31N 50°22' W 000°18'1020.0
2018-May-18 00:01N 50°28' W 000°06'1019.2
2018-May-17 23:30N 50°30' E 000°09'816.3
2018-May-17 23:01N 50°32' E 000°22'815.6
2018-May-17 22:30N 50°35' E 000°33'815.4
2018-May-17 22:01N 50°40' E 000°43'816.3
2018-May-17 21:30N 50°44' E 000°53'917.6
2018-May-17 21:00N 50°49' E 001°05'1144.6
2018-May-17 21:00N 50°48' E 001°06'1019.3 040 / 241025.910.8 9.6 7.212.0
2018-May-17 20:30N 50°54' E 001°17'1020.2
2018-May-17 20:01N 51°02' E 001°28'1020.2
2018-May-17 19:30N 51°09' E 001°38'918.9
2018-May-17 19:00N 51°16' E 001°49'917.6
2018-May-17 18:31N 51°23' E 001°57'815.3
2018-May-17 18:01N 51°22' E 002°09'815.1
2018-May-17 17:30N 51°21' E 002°21'816.9
2018-May-17 17:01N 51°23' E 002°34'815.6
2018-May-17 16:30N 51°22' E 002°47'714.7
2018-May-17 16:00N 51°23' E 002°58'714.1
2018-May-17 15:31N 51°23' E 003°10'3 6.2
2018-May-17 15:00N 51°20' E 003°12'0 0.0
2018-May-17 14:30N 51°20' E 003°12'0 0.0
2018-May-17 13:57N 51°20' E 003°12'0 0.0
2018-May-17 13:27N 51°20' E 003°12'0 0.0
2018-May-17 13:00N 51°20' E 003°12'0 0.0
2018-May-17 12:30N 51°20' E 003°12'0 0.0
2018-May-17 12:00N 51°20' E 003°12'0 0.0
2018-May-17 11:30N 51°20' E 003°12'0 0.0
2018-May-17 11:00N 51°20' E 003°12'0 0.0
2018-May-17 10:30N 51°20' E 003°12'0 0.0
2018-May-17 10:00N 51°20' E 003°12'  
Track history (hours):
 
Tides and Currents Weather Stations Pressure Air Temp Water Temp Dewpoint Dewpoint Depression Visibility Wind Speed Wind Dir Waves Ship Positions

Aurora (Bermuda)

Last reported at 2018-May-27 09:29 UTC. Time now 2018-May-27 09:32 UTC.
Position N 59°57' E 030°12'.

Length 271 m; draft 8.3 m.

Type: Ship. MMSI: 310555970.

Date/timePositionNaut miles runAvg speedWind from/ knotsBaromVisibWave heightAir tempDewpointWater temp
2018-May-27 09:29N 59°57' E 030°12'0 0.0
2018-May-27 08:59N 59°57' E 030°12'0 0.0
2018-May-27 08:29N 59°57' E 030°12'0 0.0
2018-May-27 07:59N 59°57' E 030°12'0 0.0
2018-May-27 07:29N 59°57' E 030°12'0 0.0
2018-May-27 06:59N 59°57' E 030°12'0 0.0
2018-May-27 06:29N 59°57' E 030°12'0 0.0
2018-May-27 05:59N 59°57' E 030°12'0 0.0
2018-May-27 05:29N 59°57' E 030°12'0 0.0
2018-May-27 04:59N 59°57' E 030°12'0 0.0
2018-May-27 04:29N 59°57' E 030°12'0 0.0
2018-May-27 03:56N 59°57' E 030°12'0 0.6
2018-May-27 03:30N 59°57' E 030°11'4 7.9
2018-May-27 03:00N 59°56' E 030°03'5 9.5
2018-May-27 02:31N 59°56' E 029°54'5 9.4
2018-May-27 02:01N 59°59' E 029°46'510.2
2018-May-27 01:30N 60°00' E 029°36'511.0
2018-May-27 01:01N 60°02' E 029°25'5 9.8
2018-May-27 00:30N 60°02' E 029°15'5 9.4
2018-May-26 23:59N 60°02' E 029°06'5 9.5
2018-May-26 23:30N 60°02' E 028°57'5 9.3
2018-May-26 23:00N 60°02' E 028°47'5 9.2
2018-May-26 22:30N 60°02' E 028°38'714.9
2018-May-26 22:00N 60°04' E 028°23'715.0
2018-May-26 21:30N 60°08' E 028°11'611.5
2018-May-26 21:00N 60°09' E 027°60'611.4
2018-May-26 20:31N 60°11' E 027°49'713.7
2018-May-26 20:00N 60°08' E 027°37'713.4
2018-May-26 19:31N 60°04' E 027°25'612.3
2018-May-26 19:00N 60°01' E 027°15'2135.4
2018-May-26 19:00N 60°00' E 027°18'714.9 180 / 91025.010.8 18.813.615.0
2018-May-26 18:31N 59°58' E 027°04'612.1
2018-May-26 18:00N 59°59' E 026°52'612.1
2018-May-26 17:30N 59°59' E 026°40'613.0
2018-May-26 17:00N 59°57' E 026°28'814.5
2018-May-26 16:29N 59°55' E 026°13'612.1
2018-May-26 16:00N 59°54' E 026°02'612.1
2018-May-26 15:30N 59°53' E 025°50'612.1
2018-May-26 15:00N 59°51' E 025°39'612.0
2018-May-26 14:31N 59°50' E 025°27'611.9
2018-May-26 14:00N 59°49' E 025°15'612.0
2018-May-26 13:30N 59°47' E 025°04'611.5
2018-May-26 13:00N 59°46' E 024°53'611.4
2018-May-26 12:31N 59°45' E 024°42'611.2
2018-May-26 12:00N 59°44' E 024°31'511.0
2018-May-26 11:30N 59°43' E 024°20'611.1
2018-May-26 11:00N 59°41' E 024°10'611.2
2018-May-26 10:30N 59°39' E 023°59'611.4
2018-May-26 10:00N 59°37' E 023°48'612.6
2018-May-26 09:30N 59°36' E 023°36'612.5
2018-May-26 09:00N 59°33' E 023°25'612.3
2018-May-26 08:30N 59°31' E 023°13'612.3
2018-May-26 08:00N 59°30' E 023°02'612.4
2018-May-26 07:30N 59°28' E 022°50'612.2
2018-May-26 07:00N 59°26' E 022°39'612.2
2018-May-26 06:31N 59°22' E 022°29'1212.1
2018-May-26 05:30N 59°15' E 022°09'612.1
2018-May-26 05:00N 59°12' E 021°60'612.2
2018-May-26 04:30N 59°08' E 021°50'612.3
2018-May-26 04:01N 59°04' E 021°42'612.2
2018-May-26 03:30N 58°59' E 021°33'612.1
2018-May-26 03:00N 58°56' E 021°24'612.1
2018-May-26 02:30N 58°52' E 021°15'612.1
2018-May-26 02:00N 58°48' E 021°05'612.1
2018-May-26 01:30N 58°45' E 020°56'712.1
2018-May-26 00:54N 58°40' E 020°45'511.9
2018-May-26 00:29N 58°37' E 020°37'611.8
2018-May-26 00:00N 58°34' E 020°29'913.1
2018-May-25 23:21N 58°29' E 020°16'814.7
2018-May-25 22:49N 58°24' E 020°03'412.1
2018-May-25 22:30N 58°22' E 019°58'612.2
2018-May-25 21:59N 58°18' E 019°48'712.2
2018-May-25 21:23N 58°14' E 019°37'511.9
2018-May-25 20:58N 58°11' E 019°29'611.8
2018-May-25 20:26N 58°07' E 019°20'511.8
2018-May-25 20:01N 58°05' E 019°11'4228.5
2018-May-25 20:00N 58°06' E 019°18'1020.3 060 / 141026.710.8 13.5 9.612.0
2018-May-25 19:30N 58°03' E 019°00'612.0
2018-May-25 19:00N 57°60' E 018°50'612.1
2018-May-25 18:30N 57°57' E 018°40'713.1
2018-May-25 18:00N 57°55' E 018°29'611.9
2018-May-25 17:30N 57°52' E 018°19'612.0
2018-May-25 17:01N 57°46' E 018°14'9 2.1
2018-May-25 12:53N 57°38' E 018°16'1 0.1
2018-May-25 05:05N 57°38' E 018°14'1 9.1
2018-May-25 04:56N 57°37' E 018°12'912.2
2018-May-25 04:13N 57°32' E 017°59'414.4
2018-May-25 03:59N 57°30' E 017°54'714.3
2018-May-25 03:30N 57°24' E 017°47'815.1
2018-May-25 03:00N 57°17' E 017°47'815.5
2018-May-25 02:30N 57°09' E 017°49'815.4
2018-May-25 02:00N 57°01' E 017°51'815.6
2018-May-25 01:30N 56°54' E 017°53'815.7
2018-May-25 01:00N 56°46' E 017°55'815.7
2018-May-25 00:30N 56°38' E 017°58'815.7
2018-May-25 00:00N 56°30' E 018°01'815.6
2018-May-24 23:30N 56°23' E 018°04'815.7
2018-May-24 23:00N 56°15' E 018°07'815.8
2018-May-24 22:31N 56°08' E 018°10'816.1
2018-May-24 22:01N 55°60' E 018°14'816.2
2018-May-24 21:30N 55°52' E 018°17'816.1
2018-May-24 21:00N 55°44' E 018°21'816.1
2018-May-24 20:31N 55°36' E 018°24'816.1
2018-May-24 20:01N 55°28' E 018°27'9540.0
2018-May-24 20:00N 55°36' E 018°18'1735.1 020 / 221025.510.8 12.0 7.912.0
2018-May-24 19:31N 55°21' E 018°33'815.9
2018-May-24 19:00N 55°14' E 018°40'815.8
2018-May-24 18:30N 55°07' E 018°45'816.0
2018-May-24 18:01N 54°59' E 018°50'815.8
2018-May-24 17:30N 54°52' E 018°55'815.7
2018-May-24 17:00N 54°45' E 018°59'815.8
2018-May-24 16:31N 54°37' E 018°55'815.1
2018-May-24 16:01N 54°32' E 018°46'613.0
2018-May-24 15:30N 54°32' E 018°35'1 2.2
2018-May-24 14:57N 54°32' E 018°33'0 0.0
2018-May-24 14:27N 54°32' E 018°33'0 0.0
2018-May-24 13:57N 54°32' E 018°33'0 0.0
2018-May-24 13:27N 54°32' E 018°33'0 0.0
2018-May-24 08:59N 54°32' E 018°33'0 0.0
2018-May-24 08:29N 54°32' E 018°33'0 0.0
2018-May-24 07:59N 54°32' E 018°33'0 0.0
2018-May-24 07:29N 54°32' E 018°33'0 0.0
2018-May-24 06:59N 54°32' E 018°33'0 0.0
2018-May-24 06:29N 54°32' E 018°33'0 0.0
2018-May-24 05:59N 54°32' E 018°33'0 0.5
2018-May-24 05:31N 54°32' E 018°33'4 7.9
2018-May-24 05:00N 54°32' E 018°40'510.4
2018-May-24 04:30N 54°33' E 018°49'611.2
2018-May-24 04:00N 54°38' E 018°55'611.3
2018-May-24 03:30N 54°43' E 018°59'815.0
2018-May-24 03:00N 54°50' E 018°54'815.4
2018-May-24 02:30N 54°54' E 018°43'612.8
2018-May-24 02:01N 54°59' E 018°35'712.9
2018-May-24 01:30N 54°57' E 018°24'714.1
2018-May-24 01:00N 54°58' E 018°12'714.6
2018-May-24 00:30N 54°56' E 017°60'715.0
2018-May-24 00:01N 54°54' E 017°47'714.9
2018-May-23 23:31N 54°53' E 017°34'714.9
2018-May-23 23:00N 54°52' E 017°21'251603.8
2018-May-23 23:00N 54°42' E 016°42'1836.7 080 / 201025.410.8 13.011.112.0
2018-May-23 22:30N 54°51' E 017°09'714.8
2018-May-23 22:00N 54°49' E 016°56'714.8
2018-May-23 21:30N 54°47' E 016°44'714.8
2018-May-23 21:01N 54°46' E 016°31'714.8
2018-May-23 20:31N 54°45' E 016°18'714.8
2018-May-23 20:01N 54°43' E 016°06'714.7
2018-May-23 19:31N 54°42' E 015°54'714.8
2018-May-23 19:01N 54°41' E 015°41'714.6
2018-May-23 18:31N 54°40' E 015°28'714.4
2018-May-23 18:00N 54°39' E 015°16'714.6
2018-May-23 17:30N 54°38' E 015°03'714.6
2018-May-23 17:00N 54°37' E 014°51'5340.3
2018-May-23 17:00N 54°36' E 014°42'2 4.2 050 / 111025.010.8 15.411.614.0
2018-May-23 16:30N 54°36' E 014°38'714.6
2018-May-23 16:00N 54°35' E 014°26'714.6
2018-May-23 15:30N 54°37' E 014°14'714.8
2018-May-23 15:00N 54°38' E 014°01'714.6
2018-May-23 14:30N 54°39' E 013°49'714.8
2018-May-23 14:00N 54°42' E 013°37'714.8
2018-May-23 13:30N 54°44' E 013°25'814.8
2018-May-23 12:59N 54°44' E 013°11'914.8
2018-May-23 12:24N 54°43' E 012°56'1114.3
2018-May-23 11:36N 54°42' E 012°37'614.7
2018-May-23 11:13N 54°39' E 012°29'314.7
2018-May-23 11:00N 54°37' E 012°24'713.9
2018-May-23 10:30N 54°32' E 012°17'613.0
2018-May-23 10:00N 54°26' E 012°12'714.0
2018-May-23 09:30N 54°25' E 011°60'714.5
2018-May-23 09:00N 54°25' E 011°47'714.2
2018-May-23 08:30N 54°28' E 011°36'714.9
2018-May-23 08:01N 54°31' E 011°25'714.6
2018-May-23 07:30N 54°34' E 011°13'714.3
2018-May-23 07:01N 54°38' E 011°03'611.8
2018-May-23 06:30N 54°41' E 010°54'611.9
2018-May-23 06:00N 54°47' E 010°52'713.5
2018-May-23 05:31N 54°53' E 010°53'713.0
2018-May-23 05:00N 54°59' E 010°60'713.5
2018-May-23 04:30N 55°05' E 011°02'613.1
2018-May-23 04:00N 55°12' E 011°05'713.1
2018-May-23 03:30N 55°18' E 011°03'613.1
2018-May-23 03:00N 55°24' E 010°59'713.2
2018-May-23 02:30N 55°30' E 010°53'510.9
2018-May-23 02:00N 55°35' E 010°49'510.5
2018-May-23 01:30N 55°40' E 010°46'713.1
2018-May-23 01:00N 55°46' E 010°48'713.6
2018-May-23 00:31N 55°52' E 010°53'611.4
2018-May-23 00:00N 55°57' E 010°59'4 8.2
2018-May-22 23:29N 56°01' E 011°03'612.7
2018-May-22 23:00N 56°06' E 011°09'7 9.7
2018-May-22 22:14N 56°08' E 011°22'311.1
2018-May-22 22:00N 56°08' E 011°26'711.9
2018-May-22 21:26N 56°08' E 011°38'511.9
2018-May-22 20:59N 56°09' E 011°48'611.8
2018-May-22 20:29N 56°10' E 011°58'611.9
2018-May-22 20:00N 56°12' E 012°08'612.0
2018-May-22 19:30N 56°13' E 012°19'816.0
2018-May-22 19:00N 56°08' E 012°30'714.7
2018-May-22 18:30N 56°03' E 012°40'816.4
2018-May-22 18:00N 55°55' E 012°39'815.8
2018-May-22 17:31N 55°47' E 012°42'611.3
2018-May-22 17:00N 55°42' E 012°36'0 0.6
2018-May-22 16:28N 55°42' E 012°36'0 0.0
2018-May-22 15:58N 55°42' E 012°36'0 0.0
2018-May-22 15:28N 55°42' E 012°36'0 0.0
2018-May-22 14:58N 55°42' E 012°36'0 0.0
2018-May-22 14:28N 55°42' E 012°36'0 0.0
2018-May-22 13:58N 55°42' E 012°36'0 0.0
2018-May-22 13:28N 55°42' E 012°36'0 0.0
2018-May-22 12:58N 55°42' E 012°36'0 0.0
2018-May-22 12:28N 55°42' E 012°36'0 0.0
2018-May-22 11:58N 55°42' E 012°36'0 0.0
2018-May-22 11:28N 55°42' E 012°36'0 0.0
2018-May-22 10:58N 55°42' E 012°36'0 0.0
2018-May-22 10:28N 55°42' E 012°36'0 0.0
2018-May-22 09:58N 55°42' E 012°36'0 0.0
2018-May-22 09:28N 55°42' E 012°36'0 0.0
2018-May-22 08:58N 55°42' E 012°36'0 0.0
2018-May-22 08:28N 55°42' E 012°36'0 0.0
2018-May-22 07:58N 55°42' E 012°36'0 0.0
2018-May-22 07:28N 55°42' E 012°36'0 0.0
2018-May-22 06:58N 55°42' E 012°36'0 0.7
2018-May-22 06:30N 55°42' E 012°36'1 2.5
2018-May-22 06:00N 55°43' E 012°38'613.0
2018-May-22 05:31N 55°49' E 012°42'815.9
2018-May-22 05:01N 55°57' E 012°38'714.7
2018-May-22 04:30N 56°04' E 012°37'713.5
2018-May-22 04:01N 56°08' E 012°28'816.7
2018-May-22 03:30N 56°13' E 012°16'1719.3
2018-May-22 02:36N 56°28' E 011°58'221.6
2018-May-22 02:30N 56°30' E 011°57'1821.7
2018-May-22 01:39N 56°48' E 011°51'321.6
2018-May-22 01:30N 56°51' E 011°48'1121.6
2018-May-22 01:00N 57°01' E 011°41'7411.2
2018-May-22 01:00N 56°54' E 011°42'1735.6 110 / 91020.710.8 16.612.516.0
2018-May-22 00:30N 57°11' E 011°34'1122.1
2018-May-22 00:00N 57°21' E 011°27'1121.9
2018-May-21 23:30N 57°31' E 011°21'1122.0
2018-May-21 23:00N 57°41' E 011°12'1121.5
2018-May-21 22:30N 57°52' E 011°06'1021.0
2018-May-21 22:00N 58°01' E 010°59'1121.4
2018-May-21 21:30N 58°11' E 010°50'1121.3
2018-May-21 21:00N 58°21' E 010°41'1021.0
2018-May-21 20:30N 58°31' E 010°36'1020.8
2018-May-21 20:00N 58°41' E 010°35'1019.5
2018-May-21 19:30N 58°51' E 010°34'1019.8
2018-May-21 19:00N 59°01' E 010°35'714.3
2018-May-21 18:30N 59°08' E 010°37'816.9
2018-May-21 18:00N 59°16' E 010°36'917.2
2018-May-21 17:30N 59°25' E 010°33'816.9
2018-May-21 17:00N 59°33' E 010°37'612.6
2018-May-21 16:30N 59°39' E 010°37'611.5
2018-May-21 16:00N 59°45' E 010°33'714.6
2018-May-21 15:30N 59°52' E 010°37'4 8.6
2018-May-21 15:01N 59°54' E 010°44'0 0.5
2018-May-21 14:30N 59°54' E 010°45'0 0.0
2018-May-21 14:00N 59°54' E 010°45'0 0.0
2018-May-21 13:30N 59°54' E 010°45'0 0.0
2018-May-21 13:00N 59°54' E 010°45'0 0.0
2018-May-21 12:30N 59°54' E 010°45'0 0.0
2018-May-21 12:00N 59°54' E 010°45'0 0.0
2018-May-21 11:30N 59°54' E 010°45'0 0.0
2018-May-21 11:00N 59°54' E 010°45'0 0.0
2018-May-21 10:30N 59°54' E 010°45'0 0.0
2018-May-21 10:00N 59°54' E 010°45'0 0.3
2018-May-21 09:30N 59°54' E 010°45'2 3.4
2018-May-21 09:00N 59°54' E 010°42'815.9
2018-May-21 08:31N 59°47' E 010°34'713.2
2018-May-21 08:01N 59°40' E 010°37'612.8
2018-May-21 07:30N 59°34' E 010°38'816.3
2018-May-21 07:00N 59°26' E 010°34'918.8
2018-May-21 06:30N 59°17' E 010°37'917.6
2018-May-21 06:00N 59°08' E 010°38'612.8
2018-May-21 05:30N 59°02' E 010°34'815.3
2018-May-21 05:00N 58°55' E 010°27'815.2
2018-May-21 04:30N 58°49' E 010°17'815.8
2018-May-21 04:00N 58°43' E 010°07'815.6
2018-May-21 03:30N 58°37' E 009°58'815.5
2018-May-21 03:00N 58°31' E 009°49'816.6
2018-May-21 02:30N 58°24' E 009°39'917.5
2018-May-21 02:00N 58°17' E 009°30'6422.9
2018-May-21 02:00N 58°12' E 009°24'2 4.3 130 / 121025.527.0 14.813.014.0
2018-May-21 01:30N 58°10' E 009°21'816.1
2018-May-21 01:00N 58°04' E 009°12'1116.0
2018-May-21 00:19N 57°54' E 009°03'1216.5
2018-May-20 23:35N 57°45' E 008°48'1517.1
2018-May-20 22:43N 57°32' E 008°33'418.4
2018-May-20 22:29N 57°29' E 008°29'918.0
2018-May-20 22:00N 57°22' E 008°19'1017.9
2018-May-20 21:28N 57°14' E 008°09'1118.2
2018-May-20 20:53N 57°05' E 008°00'718.0
2018-May-20 20:30N 56°59' E 007°54'918.0
2018-May-20 20:00N 56°52' E 007°43'917.8
2018-May-20 19:30N 56°45' E 007°34'918.0
2018-May-20 19:00N 56°37' E 007°26'1617.9
2018-May-20 18:06N 56°23' E 007°09'18020.8
2018-May-20 09:29N 53°50' E 004°27'3724.8
2018-May-20 08:00N 53°24' E 003°42'2618.6 020 / 81024.2 1.1 10.810.0 9.0
2018-May-20 06:34N 52°60' E 003°25'622.6
2018-May-20 06:18N 52°54' E 003°20'722.7
2018-May-20 06:00N 52°48' E 003°15'1122.9
2018-May-20 05:31N 52°38' E 003°06'1322.8
2018-May-20 04:57N 52°27' E 002°56'1022.4
2018-May-20 04:30N 52°18' E 002°48'1122.1
2018-May-20 04:00N 52°08' E 002°42'1121.9
2018-May-20 03:30N 51°57' E 002°39'1021.0
2018-May-20 03:00N 51°47' E 002°35'1121.5
2018-May-20 02:30N 51°38' E 002°26'1121.3
2018-May-20 02:00N 51°29' E 002°16'1020.8
2018-May-20 01:30N 51°20' E 002°09'1019.4
2018-May-20 01:00N 51°12' E 002°00'1020.6
2018-May-20 00:30N 51°07' E 001°46'1019.9
2018-May-20 00:00N 51°00' E 001°34'1019.4
2018-May-19 23:30N 50°52' E 001°25'919.5
2018-May-19 23:00N 50°43' E 001°21'1019.9
2018-May-19 22:30N 50°36' E 001°09'1020.0
2018-May-19 22:00N 50°30' E 000°56'1020.2
2018-May-19 21:30N 50°28' E 000°41'1019.9
2018-May-19 21:00N 50°25' E 000°26'1019.9
2018-May-19 20:30N 50°23' E 000°11'1019.6
2018-May-19 20:00N 50°21' W 000°04'1019.5
2018-May-19 19:30N 50°24' W 000°18'1019.5
2018-May-19 19:00N 50°29' W 000°32'1019.5
2018-May-19 18:30N 50°35' W 000°44'816.7
2018-May-19 18:00N 50°39' W 000°55'611.1
2018-May-19 17:30N 50°43' W 001°01'817.0
2018-May-19 17:00N 50°46' W 001°14'5 9.8
2018-May-19 16:31N 50°50' W 001°19'5 9.4
2018-May-19 16:00N 50°53' W 001°24'2 3.2
2018-May-19 15:30N 50°54' W 001°26'0 0.0
2018-May-19 14:57N 50°54' W 001°26'0 0.0
2018-May-19 14:30N 50°54' W 001°26'0 0.0
2018-May-19 14:00N 50°54' W 001°26'0 0.0
2018-May-19 13:27N 50°54' W 001°26'0 0.0
2018-May-19 13:00N 50°54' W 001°26'0 0.0
2018-May-19 12:27N 50°54' W 001°26'0 0.0
2018-May-19 12:00N 50°54' W 001°26'0 0.0
2018-May-19 11:30N 50°54' W 001°26'0 0.0
2018-May-19 11:00N 50°54' W 001°26'0 0.0
2018-May-19 10:27N 50°54' W 001°26'0 0.0
2018-May-19 10:00N 50°54' W 001°26'0 0.0
2018-May-19 09:30N 50°54' W 001°26'0 0.0
2018-May-19 09:00N 50°54' W 001°26'0 0.0
2018-May-19 08:30N 50°54' W 001°26'0 0.0
2018-May-19 08:00N 50°54' W 001°26'0 0.0
2018-May-19 07:30N 50°54' W 001°26'0 0.0
2018-May-19 07:00N 50°54' W 001°26'0 0.0
2018-May-19 06:30N 50°54' W 001°26'0 0.0
2018-May-19 06:00N 50°54' W 001°26'0 0.0
2018-May-19 05:30N 50°54' W 001°26'0 0.3
2018-May-19 05:00N 50°54' W 001°26'1 2.8
2018-May-19 04:30N 50°53' W 001°24'4 7.9
2018-May-19 04:00N 50°51' W 001°20'4 8.6
2018-May-19 03:30N 50°47' W 001°18'816.5
2018-May-19 03:01N 50°45' W 001°06'713.6
2018-May-19 02:31N 50°40' W 000°58'612.4
2018-May-19 02:00N 50°34' W 001°00'714.5
2018-May-19 01:30N 50°29' W 001°09'917.5
2018-May-19 01:00N 50°27' W 001°22'917.3
2018-May-19 00:30N 50°25' W 001°35'816.8
2018-May-19 00:00N 50°23' W 001°48'917.6
2018-May-18 23:30N 50°21' W 002°01'917.9
2018-May-18 23:00N 50°18' W 002°15'918.8
2018-May-18 22:30N 50°16' W 002°29'1019.3
2018-May-18 22:00N 50°14' W 002°44'919.1
2018-May-18 21:30N 50°11' W 002°58'917.6
2018-May-18 21:00N 50°06' W 003°09'1020.6
2018-May-18 20:30N 49°56' W 003°07'1019.8
2018-May-18 20:00N 49°46' W 003°04'1019.0
2018-May-18 19:30N 49°37' W 002°58'917.3
2018-May-18 19:00N 49°29' W 002°53'815.5
2018-May-18 18:30N 49°23' W 002°46'713.5
2018-May-18 18:01N 49°22' W 002°36'611.6
2018-May-18 17:30N 49°26' W 002°30'2 3.0
2018-May-18 17:00N 49°28' W 002°30'0 0.0
2018-May-18 16:30N 49°28' W 002°30'0 0.1
2018-May-18 16:00N 49°27' W 002°30'0 0.0
2018-May-18 15:30N 49°27' W 002°30'0 0.0
2018-May-18 14:39N 49°28' W 002°30'0 0.1
2018-May-18 14:30N 49°27' W 002°30'0 0.1
2018-May-18 13:57N 49°28' W 002°30'0 0.1
2018-May-18 13:30N 49°28' W 002°30'0 0.0
2018-May-18 13:00N 49°28' W 002°30'0 0.0
2018-May-18 12:30N 49°28' W 002°30'0 0.0
2018-May-18 12:00N 49°28' W 002°30'0 0.0
2018-May-18 11:27N 49°28' W 002°30'0 0.0
2018-May-18 10:57N 49°28' W 002°30'0 0.1
2018-May-18 10:30N 49°28' W 002°30'0 0.0
2018-May-18 09:57N 49°28' W 002°30'0 0.0
2018-May-18 09:21N 49°28' W 002°30'0 0.0
2018-May-18 09:00N 49°28' W 002°30'0 0.0
2018-May-18 08:27N 49°28' W 002°30'0 0.0
2018-May-18 08:00N 49°28' W 002°30'0 0.0
2018-May-18 07:30N 49°28' W 002°30'0 0.1
2018-May-18 07:00N 49°28' W 002°30'0 0.2
2018-May-18 06:30N 49°28' W 002°30'3 6.0
2018-May-18 06:00N 49°25' W 002°29'612.7
2018-May-18 05:30N 49°23' W 002°20'815.4
2018-May-18 05:00N 49°28' W 002°12'918.8
2018-May-18 04:30N 49°37' W 002°07'1020.1
2018-May-18 04:00N 49°47' W 002°01'1122.5
2018-May-18 03:30N 49°51' W 001°45'1122.3
2018-May-18 03:00N 49°54' W 001°28'1121.6
2018-May-18 02:30N 49°59' W 001°13'1122.7
2018-May-18 02:01N 50°04' W 000°57'1020.6
2018-May-18 01:30N 50°11' W 000°46'1121.5
2018-May-18 01:01N 50°18' W 000°33'1121.1
2018-May-18 00:31N 50°22' W 000°18'1020.0
2018-May-18 00:01N 50°28' W 000°06'1019.2
2018-May-17 23:30N 50°30' E 000°09'816.3
2018-May-17 23:01N 50°32' E 000°22'815.6
2018-May-17 22:30N 50°35' E 000°33'815.4
2018-May-17 22:01N 50°40' E 000°43'816.3
2018-May-17 21:30N 50°44' E 000°53'917.6
2018-May-17 21:00N 50°49' E 001°05'1144.6
2018-May-17 21:00N 50°48' E 001°06'1019.3 040 / 241025.910.8 9.6 7.212.0
2018-May-17 20:30N 50°54' E 001°17'1020.2
2018-May-17 20:01N 51°02' E 001°28'1020.2
2018-May-17 19:30N 51°09' E 001°38'918.9
2018-May-17 19:00N 51°16' E 001°49'917.6
2018-May-17 18:31N 51°23' E 001°57'815.3
2018-May-17 18:01N 51°22' E 002°09'815.1
2018-May-17 17:30N 51°21' E 002°21'816.9
2018-May-17 17:01N 51°23' E 002°34'815.6
2018-May-17 16:30N 51°22' E 002°47'714.7
2018-May-17 16:00N 51°23' E 002°58'714.1
2018-May-17 15:31N 51°23' E 003°10'3 6.2
2018-May-17 15:00N 51°20' E 003°12'0 0.0
2018-May-17 14:30N 51°20' E 003°12'0 0.0
2018-May-17 13:57N 51°20' E 003°12'0 0.0
2018-May-17 13:27N 51°20' E 003°12'0 0.0
2018-May-17 13:00N 51°20' E 003°12'0 0.0
2018-May-17 12:30N 51°20' E 003°12'0 0.0
2018-May-17 12:00N 51°20' E 003°12'0 0.0
2018-May-17 11:30N 51°20' E 003°12'0 0.0
2018-May-17 11:00N 51°20' E 003°12'0 0.0
2018-May-17 10:30N 51°20' E 003°12'0 0.0
2018-May-17 10:00N 51°20' E 003°12'  

Dump ship's entire track history